createdAt,value
2018-05-02T00:09:51.951Z,5.9
2018-05-02T00:26:27.676Z,5.9
2018-05-02T00:43:02.779Z,5.6
2018-05-02T00:59:38.050Z,5.6
2018-05-02T01:16:13.271Z,5.6
2018-05-02T01:32:47.689Z,5.3
2018-05-02T01:49:23.072Z,5.3
2018-05-02T02:05:57.795Z,5.0
2018-05-02T02:22:32.637Z,5.0
2018-05-02T02:39:07.193Z,5.0
2018-05-02T02:55:41.743Z,5.0
2018-05-02T03:12:16.823Z,4.6
2018-05-02T03:28:51.185Z,4.6
2018-05-02T03:45:25.835Z,4.6
2018-05-02T04:02:00.439Z,4.6
2018-05-02T04:18:34.717Z,4.3
2018-05-02T04:35:09.065Z,4.6
2018-05-02T04:51:43.710Z,5.0
2018-05-02T05:08:18.730Z,5.3
2018-05-02T05:24:54.002Z,5.6
2018-05-02T05:41:29.752Z,6.2
2018-05-02T05:54:46.704Z,6.9
2018-05-02T06:04:45.175Z,7.5
2018-05-02T06:14:43.454Z,8.2
2018-05-02T06:21:22.718Z,8.8
2018-05-02T06:28:01.349Z,9.4
2018-05-02T06:38:00.431Z,10.1
2018-05-02T06:48:00.219Z,10.7
2018-05-02T06:57:59.307Z,11.4
2018-05-02T07:14:39.743Z,11.7
2018-05-02T07:27:59.243Z,12.3
2018-05-02T07:44:40.006Z,12.6
2018-05-02T07:54:42.247Z,13.3
2018-05-02T08:11:22.179Z,13.9
2018-05-02T08:28:04.507Z,14.2
2018-05-02T08:58:08.058Z,14.9
2018-05-02T09:14:50.626Z,14.9
2018-05-02T09:31:33.519Z,15.5
2018-05-02T09:48:17.462Z,15.5
2018-05-02T09:58:19.093Z,15.8
2018-05-02T10:15:09.236Z,16.2
2018-05-02T10:31:45.140Z,16.2
2018-05-02T10:48:28.712Z,15.8
2018-05-02T10:58:30.882Z,16.5
2018-05-02T11:15:15.257Z,16.8
2018-05-02T11:31:59.229Z,16.8
2018-05-02T11:48:43.555Z,17.1
2018-05-02T12:05:28.027Z,17.1
2018-05-02T12:22:12.636Z,17.4
2018-05-02T12:38:57.414Z,17.8
2018-05-02T12:55:42.526Z,18.1
2018-05-02T13:12:27.657Z,18.1
2018-05-02T13:29:13.928Z,18.1
2018-05-02T13:45:58.673Z,18.4
2018-05-02T14:02:44.273Z,18.7
2018-05-02T14:19:30.154Z,18.7
2018-05-02T14:36:16.132Z,19.0
2018-05-02T14:53:02.204Z,19.0
2018-05-02T15:09:48.439Z,19.4
2018-05-02T15:26:34.915Z,19.4
2018-05-02T15:43:21.380Z,19.4
2018-05-02T16:00:07.871Z,19.4
2018-05-02T16:16:54.503Z,19.7
2018-05-02T16:33:41.651Z,20.0
2018-05-02T16:50:28.572Z,20.0
2018-05-02T17:07:15.782Z,20.3
2018-05-02T17:24:03.353Z,20.0
2018-05-02T17:34:07.259Z,19.4
2018-05-02T17:40:49.857Z,18.7
2018-05-02T17:50:53.074Z,18.1
2018-05-02T18:04:17.223Z,17.4
2018-05-02T18:21:01.746Z,16.8
2018-05-02T18:37:45.746Z,16.5
2018-05-02T18:54:29.732Z,16.2
2018-05-02T19:11:12.767Z,15.5
2018-05-02T19:27:55.896Z,15.2
2018-05-02T19:44:38.820Z,15.2
2018-05-02T20:01:21.406Z,14.9
2018-05-02T20:18:03.770Z,14.6
2018-05-02T20:34:45.933Z,14.2
2018-05-02T20:51:27.833Z,13.9
2018-05-02T21:08:09.788Z,13.6
2018-05-02T21:24:51.436Z,13.3
2018-05-02T21:41:32.615Z,13.3
2018-05-02T21:58:13.884Z,13.0
2018-05-02T22:14:55.065Z,13.0
2018-05-02T22:31:37.940Z,12.6
2018-05-02T22:48:16.831Z,12.6
2018-05-02T23:04:59.219Z,12.3
2018-05-02T23:21:39.412Z,12.3
2018-05-02T23:38:20.423Z,12.0
2018-05-02T23:54:58.660Z,11.7
